Alsace — PB4786 — position and weather

sailwx.info

Track history (hours):
 
Tides and Currents Weather Stations Pressure Air Temp Water Temp Dewpoint Dewpoint Depression Visibility Wind Speed Wind Dir Waves Ship Positions

Alsace

Last reported at 2016-Jul-27 09:20 UTC. Time now 2016-Jul-27 09:40 UTC.
Position N 51°29' E 006°41'.

Length 178 m; draft 1.8 m.

Type: Ship. MMSI: 244660556.

Date/timePositionNaut miles runAvg speedWind from/ knotsBaromVisibWave heightAir tempDewpointWater temp
2016-Jul-27 09:20N 51°29' E 006°41'3 4.0
2016-Jul-27 08:33N 51°33' E 006°41'4 3.7
2016-Jul-27 07:33N 51°35' E 006°36'16 4.9
2016-Jul-27 04:22N 51°47' E 006°19'17 5.6
2016-Jul-27 01:17N 51°51' E 005°53'5 6.3
2016-Jul-27 00:32N 51°53' E 005°46'25 6.2
2016-Jul-26 20:26N 51°50' E 005°05'7 7.8
2016-Jul-26 19:34N 51°49' E 004°54'8 8.4
2016-Jul-26 18:33N 51°50' E 004°40'8 7.6
2016-Jul-26 17:33N 51°55' E 004°31'4 4.2
2016-Jul-26 16:33N 51°53' E 004°24'0 0.0
2016-Jul-26 15:33N 51°53' E 004°24'1 1.1
2016-Jul-26 14:33N 51°53' E 004°26'1 1.3
2016-Jul-26 13:33N 51°54' E 004°24'0 0.0
2016-Jul-26 12:33N 51°54' E 004°24'0 0.3
2016-Jul-26 11:33N 51°53' E 004°24'0 0.0
2016-Jul-26 10:33N 51°53' E 004°24'0 0.0
2016-Jul-26 09:34N 51°53' E 004°24'0 0.0
2016-Jul-26 08:33N 51°53' E 004°24'0 0.0
2016-Jul-26 07:34N 51°53' E 004°24'2 1.7
2016-Jul-26 06:34N 51°54' E 004°22'1010.1
2016-Jul-26 05:34N 51°58' E 004°07'5 4.6
2016-Jul-26 04:34N 51°58' E 003°60'0 0.1
2016-Jul-26 03:33N 51°58' E 003°60'0 0.0
2016-Jul-26 02:34N 51°58' E 003°60'2 2.1
2016-Jul-26 01:33N 51°58' E 004°03'2 1.9
2016-Jul-26 00:33N 51°56' E 004°02'2 2.4
2016-Jul-25 23:33N 51°59' E 004°01'0 0.0
2016-Jul-25 22:33N 51°59' E 004°02'2 2.0
2016-Jul-25 21:33N 51°57' E 004°03'0 0.0
2016-Jul-25 20:33N 51°57' E 004°03'0 0.0
2016-Jul-25 19:33N 51°57' E 004°03'0 0.0
2016-Jul-25 18:34N 51°57' E 004°03'1 1.1
2016-Jul-25 17:33N 51°57' E 004°05'0 0.0
2016-Jul-25 16:33N 51°57' E 004°05'0 0.0
2016-Jul-25 15:33N 51°57' E 004°05'0 0.0
2016-Jul-25 14:34N 51°57' E 004°05'1 0.5
2016-Jul-25 13:33N 51°58' E 004°04'2 2.2
2016-Jul-25 12:33N 51°57' E 004°01'1 1.2
2016-Jul-25 11:33N 51°59' E 004°01'3 3.2
2016-Jul-25 10:33N 51°57' E 004°05'7 7.0
2016-Jul-25 09:33N 51°53' E 004°14'4 3.9
2016-Jul-25 08:33N 51°54' E 004°20'3 3.4
2016-Jul-25 07:33N 51°54' E 004°26'0 0.0
2016-Jul-25 06:33N 51°54' E 004°26'0 0.2
2016-Jul-25 05:33N 51°54' E 004°26'1 0.7
2016-Jul-25 04:34N 51°53' E 004°26'1 0.6
2016-Jul-25 03:33N 51°53' E 004°26'6 6.4
2016-Jul-25 02:33N 51°53' E 004°37'8 8.2
2016-Jul-25 01:33N 51°49' E 004°48'12 9.4
2016-Jul-25 00:16N 51°49' E 005°08'7 9.4
2016-Jul-24 23:33N 51°49' E 005°19'19 8.4
2016-Jul-24 21:20N 51°52' E 005°49'31 8.3
2016-Jul-24 17:33N 51°40' E 006°35'7 7.3
2016-Jul-24 16:33N 51°34' E 006°41'21 7.0
2016-Jul-24 13:33N 51°13' E 006°44'18 7.4
2016-Jul-24 11:07N 50°58' E 006°59'13 7.5
2016-Jul-24 09:27N 50°46' E 007°05'99 7.6
2016-Jul-23 20:23N 49°22' E 008°30'9 8.4
2016-Jul-23 19:21N 49°15' E 008°24'910.9
2016-Jul-23 18:31N 49°06' E 008°21'8 0.2
2016-Jul-22 04:27N 48°59' E 008°16'4 5.0
2016-Jul-22 03:34N 49°03' E 008°18'5 5.2
2016-Jul-22 02:33N 49°07' E 008°22'5 5.1
2016-Jul-22 01:33N 49°12' E 008°23'6 5.2
2016-Jul-22 00:30N 49°17' E 008°28'100 4.5
2016-Jul-21 02:18N 50°43' E 007°08'5 5.7
2016-Jul-21 01:26N 50°47' E 007°03'5 4.5
2016-Jul-21 00:23N 50°51' E 006°60'3 3.0
2016-Jul-20 23:29N 50°54' E 007°00'14 4.8
2016-Jul-20 20:28N 51°07' E 006°52'3 3.2
2016-Jul-20 19:33N 51°09' E 006°48'4 4.3
2016-Jul-20 18:33N 51°12' E 006°44'4 3.1
2016-Jul-20 17:17N 51°16' E 006°42'13 4.2
2016-Jul-20 14:03N 51°29' E 006°41'2 3.5
2016-Jul-20 13:23N 51°32' E 006°41'5 4.0
2016-Jul-20 12:13N 51°35' E 006°36'5 4.6
2016-Jul-20 11:10N 51°39' E 006°33'31 5.5
2016-Jul-20 05:32N 51°53' E 005°48'18 6.0
2016-Jul-20 02:33N 51°49' E 005°19'7 6.8
2016-Jul-20 01:28N 51°49' E 005°07'6 7.0
2016-Jul-20 00:33N 51°50' E 004°57'8 7.7
2016-Jul-19 23:33N 51°49' E 004°44'7 6.9
2016-Jul-19 22:33N 51°54' E 004°36'6 6.4
2016-Jul-19 21:33N 51°54' E 004°25'1 0.8
2016-Jul-19 20:33N 51°54' E 004°24'0 0.0
2016-Jul-19 19:33N 51°54' E 004°24'0 0.0
2016-Jul-19 18:33N 51°54' E 004°24'1 1.4
2016-Jul-19 17:33N 51°54' E 004°22'0 0.0
2016-Jul-19 16:33N 51°54' E 004°22'1 1.2
2016-Jul-19 15:33N 51°54' E 004°24'0 0.3
2016-Jul-19 14:33N 51°54' E 004°25'0 0.5
2016-Jul-19 13:33N 51°53' E 004°24'0 0.0
2016-Jul-19 12:32N 51°53' E 004°24'0 0.4
2016-Jul-19 11:33N 51°53' E 004°25'1 0.6
2016-Jul-19 10:33N 51°53' E 004°26'2 2.4
2016-Jul-19 09:33N 51°54' E 004°22'5 4.9
2016-Jul-19 08:33N 51°52' E 004°14'7 7.2
2016-Jul-19 07:33N 51°56' E 004°05'2 0.7
2016-Jul-19 04:33N 51°58' E 004°03'1 0.8
2016-Jul-19 03:33N 51°57' E 004°03'0 0.1
2016-Jul-19 02:33N 51°57' E 004°02'2 1.5
2016-Jul-19 01:33N 51°58' E 004°00'1 0.6
2016-Jul-19 00:33N 51°58' E 004°01'1 0.9
2016-Jul-18 23:33N 51°58' E 003°60'3 2.7
2016-Jul-18 22:33N 51°58' E 004°04'0 0.0
2016-Jul-18 21:33N 51°58' E 004°04'3 2.7
2016-Jul-18 20:33N 51°58' E 003°60'0 0.0
2016-Jul-18 19:33N 51°58' E 003°60'0 0.2
2016-Jul-18 18:32N 51°57' E 003°60'6 6.5
2016-Jul-18 17:34N 51°57' E 004°10'7 7.1
2016-Jul-18 16:33N 51°53' E 004°19'4 4.0
2016-Jul-18 15:33N 51°54' E 004°26'1 0.8
2016-Jul-18 14:33N 51°53' E 004°26'0 0.0
2016-Jul-18 13:33N 51°53' E 004°26'0 0.0
2016-Jul-18 12:33N 51°53' E 004°26'1 0.7
2016-Jul-18 11:33N 51°53' E 004°25'1 1.4
2016-Jul-18 10:33N 51°54' E 004°24'8 8.1
2016-Jul-18 09:33N 51°53' E 004°37'5 4.7
2016-Jul-18 08:34N 51°49' E 004°39'0 0.0
2016-Jul-18 07:34N 51°49' E 004°39'2 2.0
2016-Jul-18 06:33N 51°51' E 004°40'0 0.0
2016-Jul-18 05:33N 51°51' E 004°40'0 0.0
2016-Jul-18 04:33N 51°51' E 004°40'0 0.0
2016-Jul-18 03:33N 51°51' E 004°40'0 0.0
2016-Jul-18 02:33N 51°51' E 004°40'0 0.0
2016-Jul-18 01:33N 51°51' E 004°40'0 0.0
2016-Jul-18 00:33N 51°51' E 004°40'6 6.4
2016-Jul-17 23:33N 51°49' E 004°50'17 8.4
2016-Jul-17 21:32N 51°49' E 005°18'45 7.0
2016-Jul-17 15:05N 51°40' E 006°29'5 8.3
2016-Jul-17 14:32N 51°39' E 006°36'25 6.2
2016-Jul-17 10:34N 51°15' E 006°45'5 4.8
2016-Jul-17 09:33N 51°10' E 006°48'  
Track history (hours):
 
Tides and Currents Weather Stations Pressure Air Temp Water Temp Dewpoint Dewpoint Depression Visibility Wind Speed Wind Dir Waves Ship Positions

Alsace

Last reported at 2016-Jul-27 09:20 UTC. Time now 2016-Jul-27 09:40 UTC.
Position N 51°29' E 006°41'.

Length 178 m; draft 1.8 m.

Type: Ship. MMSI: 244660556.

Date/timePositionNaut miles runAvg speedWind from/ knotsBaromVisibWave heightAir tempDewpointWater temp
2016-Jul-27 09:20N 51°29' E 006°41'3 4.0
2016-Jul-27 08:33N 51°33' E 006°41'4 3.7
2016-Jul-27 07:33N 51°35' E 006°36'16 4.9
2016-Jul-27 04:22N 51°47' E 006°19'17 5.6
2016-Jul-27 01:17N 51°51' E 005°53'5 6.3
2016-Jul-27 00:32N 51°53' E 005°46'25 6.2
2016-Jul-26 20:26N 51°50' E 005°05'7 7.8
2016-Jul-26 19:34N 51°49' E 004°54'8 8.4
2016-Jul-26 18:33N 51°50' E 004°40'8 7.6
2016-Jul-26 17:33N 51°55' E 004°31'4 4.2
2016-Jul-26 16:33N 51°53' E 004°24'0 0.0
2016-Jul-26 15:33N 51°53' E 004°24'1 1.1
2016-Jul-26 14:33N 51°53' E 004°26'1 1.3
2016-Jul-26 13:33N 51°54' E 004°24'0 0.0
2016-Jul-26 12:33N 51°54' E 004°24'0 0.3
2016-Jul-26 11:33N 51°53' E 004°24'0 0.0
2016-Jul-26 10:33N 51°53' E 004°24'0 0.0
2016-Jul-26 09:34N 51°53' E 004°24'0 0.0
2016-Jul-26 08:33N 51°53' E 004°24'0 0.0
2016-Jul-26 07:34N 51°53' E 004°24'2 1.7
2016-Jul-26 06:34N 51°54' E 004°22'1010.1
2016-Jul-26 05:34N 51°58' E 004°07'5 4.6
2016-Jul-26 04:34N 51°58' E 003°60'0 0.1
2016-Jul-26 03:33N 51°58' E 003°60'0 0.0
2016-Jul-26 02:34N 51°58' E 003°60'2 2.1
2016-Jul-26 01:33N 51°58' E 004°03'2 1.9
2016-Jul-26 00:33N 51°56' E 004°02'2 2.4
2016-Jul-25 23:33N 51°59' E 004°01'0 0.0
2016-Jul-25 22:33N 51°59' E 004°02'2 2.0
2016-Jul-25 21:33N 51°57' E 004°03'0 0.0
2016-Jul-25 20:33N 51°57' E 004°03'0 0.0
2016-Jul-25 19:33N 51°57' E 004°03'0 0.0
2016-Jul-25 18:34N 51°57' E 004°03'1 1.1
2016-Jul-25 17:33N 51°57' E 004°05'0 0.0
2016-Jul-25 16:33N 51°57' E 004°05'0 0.0
2016-Jul-25 15:33N 51°57' E 004°05'0 0.0
2016-Jul-25 14:34N 51°57' E 004°05'1 0.5
2016-Jul-25 13:33N 51°58' E 004°04'2 2.2
2016-Jul-25 12:33N 51°57' E 004°01'1 1.2
2016-Jul-25 11:33N 51°59' E 004°01'3 3.2
2016-Jul-25 10:33N 51°57' E 004°05'7 7.0
2016-Jul-25 09:33N 51°53' E 004°14'4 3.9
2016-Jul-25 08:33N 51°54' E 004°20'3 3.4
2016-Jul-25 07:33N 51°54' E 004°26'0 0.0
2016-Jul-25 06:33N 51°54' E 004°26'0 0.2
2016-Jul-25 05:33N 51°54' E 004°26'1 0.7
2016-Jul-25 04:34N 51°53' E 004°26'1 0.6
2016-Jul-25 03:33N 51°53' E 004°26'6 6.4
2016-Jul-25 02:33N 51°53' E 004°37'8 8.2
2016-Jul-25 01:33N 51°49' E 004°48'12 9.4
2016-Jul-25 00:16N 51°49' E 005°08'7 9.4
2016-Jul-24 23:33N 51°49' E 005°19'19 8.4
2016-Jul-24 21:20N 51°52' E 005°49'31 8.3
2016-Jul-24 17:33N 51°40' E 006°35'7 7.3
2016-Jul-24 16:33N 51°34' E 006°41'21 7.0
2016-Jul-24 13:33N 51°13' E 006°44'18 7.4
2016-Jul-24 11:07N 50°58' E 006°59'13 7.5
2016-Jul-24 09:27N 50°46' E 007°05'99 7.6
2016-Jul-23 20:23N 49°22' E 008°30'9 8.4
2016-Jul-23 19:21N 49°15' E 008°24'910.9
2016-Jul-23 18:31N 49°06' E 008°21'8 0.2
2016-Jul-22 04:27N 48°59' E 008°16'4 5.0
2016-Jul-22 03:34N 49°03' E 008°18'5 5.2
2016-Jul-22 02:33N 49°07' E 008°22'5 5.1
2016-Jul-22 01:33N 49°12' E 008°23'6 5.2
2016-Jul-22 00:30N 49°17' E 008°28'100 4.5
2016-Jul-21 02:18N 50°43' E 007°08'5 5.7
2016-Jul-21 01:26N 50°47' E 007°03'5 4.5
2016-Jul-21 00:23N 50°51' E 006°60'3 3.0
2016-Jul-20 23:29N 50°54' E 007°00'14 4.8
2016-Jul-20 20:28N 51°07' E 006°52'3 3.2
2016-Jul-20 19:33N 51°09' E 006°48'4 4.3
2016-Jul-20 18:33N 51°12' E 006°44'4 3.1
2016-Jul-20 17:17N 51°16' E 006°42'13 4.2
2016-Jul-20 14:03N 51°29' E 006°41'2 3.5
2016-Jul-20 13:23N 51°32' E 006°41'5 4.0
2016-Jul-20 12:13N 51°35' E 006°36'5 4.6
2016-Jul-20 11:10N 51°39' E 006°33'31 5.5
2016-Jul-20 05:32N 51°53' E 005°48'18 6.0
2016-Jul-20 02:33N 51°49' E 005°19'7 6.8
2016-Jul-20 01:28N 51°49' E 005°07'6 7.0
2016-Jul-20 00:33N 51°50' E 004°57'8 7.7
2016-Jul-19 23:33N 51°49' E 004°44'7 6.9
2016-Jul-19 22:33N 51°54' E 004°36'6 6.4
2016-Jul-19 21:33N 51°54' E 004°25'1 0.8
2016-Jul-19 20:33N 51°54' E 004°24'0 0.0
2016-Jul-19 19:33N 51°54' E 004°24'0 0.0
2016-Jul-19 18:33N 51°54' E 004°24'1 1.4
2016-Jul-19 17:33N 51°54' E 004°22'0 0.0
2016-Jul-19 16:33N 51°54' E 004°22'1 1.2
2016-Jul-19 15:33N 51°54' E 004°24'0 0.3
2016-Jul-19 14:33N 51°54' E 004°25'0 0.5
2016-Jul-19 13:33N 51°53' E 004°24'0 0.0
2016-Jul-19 12:32N 51°53' E 004°24'0 0.4
2016-Jul-19 11:33N 51°53' E 004°25'1 0.6
2016-Jul-19 10:33N 51°53' E 004°26'2 2.4
2016-Jul-19 09:33N 51°54' E 004°22'5 4.9
2016-Jul-19 08:33N 51°52' E 004°14'7 7.2
2016-Jul-19 07:33N 51°56' E 004°05'2 0.7
2016-Jul-19 04:33N 51°58' E 004°03'1 0.8
2016-Jul-19 03:33N 51°57' E 004°03'0 0.1
2016-Jul-19 02:33N 51°57' E 004°02'2 1.5
2016-Jul-19 01:33N 51°58' E 004°00'1 0.6
2016-Jul-19 00:33N 51°58' E 004°01'1 0.9
2016-Jul-18 23:33N 51°58' E 003°60'3 2.7
2016-Jul-18 22:33N 51°58' E 004°04'0 0.0
2016-Jul-18 21:33N 51°58' E 004°04'3 2.7
2016-Jul-18 20:33N 51°58' E 003°60'0 0.0
2016-Jul-18 19:33N 51°58' E 003°60'0 0.2
2016-Jul-18 18:32N 51°57' E 003°60'6 6.5
2016-Jul-18 17:34N 51°57' E 004°10'7 7.1
2016-Jul-18 16:33N 51°53' E 004°19'4 4.0
2016-Jul-18 15:33N 51°54' E 004°26'1 0.8
2016-Jul-18 14:33N 51°53' E 004°26'0 0.0
2016-Jul-18 13:33N 51°53' E 004°26'0 0.0
2016-Jul-18 12:33N 51°53' E 004°26'1 0.7
2016-Jul-18 11:33N 51°53' E 004°25'1 1.4
2016-Jul-18 10:33N 51°54' E 004°24'8 8.1
2016-Jul-18 09:33N 51°53' E 004°37'5 4.7
2016-Jul-18 08:34N 51°49' E 004°39'0 0.0
2016-Jul-18 07:34N 51°49' E 004°39'2 2.0
2016-Jul-18 06:33N 51°51' E 004°40'0 0.0
2016-Jul-18 05:33N 51°51' E 004°40'0 0.0
2016-Jul-18 04:33N 51°51' E 004°40'0 0.0
2016-Jul-18 03:33N 51°51' E 004°40'0 0.0
2016-Jul-18 02:33N 51°51' E 004°40'0 0.0
2016-Jul-18 01:33N 51°51' E 004°40'0 0.0
2016-Jul-18 00:33N 51°51' E 004°40'6 6.4
2016-Jul-17 23:33N 51°49' E 004°50'17 8.4
2016-Jul-17 21:32N 51°49' E 005°18'45 7.0
2016-Jul-17 15:05N 51°40' E 006°29'5 8.3
2016-Jul-17 14:32N 51°39' E 006°36'25 6.2
2016-Jul-17 10:34N 51°15' E 006°45'5 4.8
2016-Jul-17 09:33N 51°10' E 006°48'  

Dump ship's entire track history